sensor_id;sensor_type;location;lat;lon;timestamp;P1;durP1;ratioP1;P2;durP2;ratioP2
53670;SDS011;39571;48.612;8.088;2022-10-16T00:01:30;5.43;;;1.33;;
53670;SDS011;39571;48.612;8.088;2022-10-16T00:03:57;4.53;;;1.40;;
53670;SDS011;39571;48.612;8.088;2022-10-16T00:06:24;2.42;;;1.30;;
53670;SDS011;39571;48.612;8.088;2022-10-16T00:08:50;3.00;;;1.30;;
53670;SDS011;39571;48.612;8.088;2022-10-16T00:11:17;3.95;;;1.33;;
53670;SDS011;39571;48.612;8.088;2022-10-16T00:13:47;4.70;;;1.40;;
53670;SDS011;39571;48.612;8.088;2022-10-16T00:16:14;4.47;;;1.40;;
53670;SDS011;39571;48.612;8.088;2022-10-16T00:18:40;4.45;;;1.30;;
53670;SDS011;39571;48.612;8.088;2022-10-16T00:21:07;3.17;;;1.38;;
53670;SDS011;39571;48.612;8.088;2022-10-16T00:23:34;3.83;;;1.35;;
53670;SDS011;39571;48.612;8.088;2022-10-16T00:26:01;3.00;;;1.17;;
53670;SDS011;39571;48.612;8.088;2022-10-16T00:28:28;2.45;;;1.33;;
53670;SDS011;39571;48.612;8.088;2022-10-16T00:30:54;3.42;;;1.20;;
53670;SDS011;39571;48.612;8.088;2022-10-16T00:33:20;2.75;;;1.40;;
53670;SDS011;39571;48.612;8.088;2022-10-16T00:35:46;2.22;;;1.10;;
53670;SDS011;39571;48.612;8.088;2022-10-16T00:38:12;3.22;;;1.20;;
53670;SDS011;39571;48.612;8.088;2022-10-16T00:40:37;2.75;;;1.13;;
53670;SDS011;39571;48.612;8.088;2022-10-16T00:43:08;4.82;;;1.50;;
53670;SDS011;39571;48.612;8.088;2022-10-16T00:45:54;4.00;;;1.30;;
53670;SDS011;39571;48.612;8.088;2022-10-16T00:48:19;3.78;;;1.02;;
53670;SDS011;39571;48.612;8.088;2022-10-16T00:50:45;4.50;;;1.23;;
53670;SDS011;39571;48.612;8.088;2022-10-16T00:53:10;3.35;;;1.27;;
53670;SDS011;39571;48.612;8.088;2022-10-16T00:55:37;2.97;;;1.45;;
53670;SDS011;39571;48.612;8.088;2022-10-16T00:58:02;3.25;;;1.50;;
53670;SDS011;39571;48.612;8.088;2022-10-16T01:00:27;2.85;;;1.23;;
53670;SDS011;39571;48.612;8.088;2022-10-16T01:02:59;3.28;;;1.17;;
53670;SDS011;39571;48.612;8.088;2022-10-16T01:05:29;1.98;;;1.00;;
53670;SDS011;39571;48.612;8.088;2022-10-16T01:08:08;1.75;;;1.00;;
53670;SDS011;39571;48.612;8.088;2022-10-16T01:10:48;2.83;;;1.15;;
53670;SDS011;39571;48.612;8.088;2022-10-16T01:13:24;4.20;;;1.30;;
53670;SDS011;39571;48.612;8.088;2022-10-16T01:16:01;2.60;;;1.20;;
53670;SDS011;39571;48.612;8.088;2022-10-16T01:21:35;3.33;;;1.00;;
53670;SDS011;39571;48.612;8.088;2022-10-16T01:29:25;1.95;;;1.02;;
53670;SDS011;39571;48.612;8.088;2022-10-16T01:31:56;1.88;;;1.00;;
53670;SDS011;39571;48.612;8.088;2022-10-16T01:34:33;4.32;;;1.42;;
53670;SDS011;39571;48.612;8.088;2022-10-16T01:37:02;3.47;;;1.33;;
53670;SDS011;39571;48.612;8.088;2022-10-16T01:39:33;2.63;;;1.10;;
53670;SDS011;39571;48.612;8.088;2022-10-16T01:42:10;2.40;;;1.35;;
53670;SDS011;39571;48.612;8.088;2022-10-16T01:44:40;1.85;;;1.10;;
53670;SDS011;39571;48.612;8.088;2022-10-16T01:47:08;2.85;;;1.00;;
53670;SDS011;39571;48.612;8.088;2022-10-16T01:49:36;2.10;;;1.00;;
53670;SDS011;39571;48.612;8.088;2022-10-16T01:52:05;2.15;;;1.23;;
53670;SDS011;39571;48.612;8.088;2022-10-16T01:54:34;2.42;;;1.17;;
53670;SDS011;39571;48.612;8.088;2022-10-16T01:57:02;1.92;;;1.00;;
53670;SDS011;39571;48.612;8.088;2022-10-16T01:59:31;2.60;;;0.98;;
53670;SDS011;39571;48.612;8.088;2022-10-16T02:02:03;1.95;;;1.00;;
53670;SDS011;39571;48.612;8.088;2022-10-16T02:05:08;2.28;;;1.23;;
53670;SDS011;39571;48.612;8.088;2022-10-16T02:07:29;1.88;;;1.00;;
53670;SDS011;39571;48.612;8.088;2022-10-16T02:09:55;2.17;;;1.10;;
53670;SDS011;39571;48.612;8.088;2022-10-16T02:12:25;1.75;;;0.90;;
53670;SDS011;39571;48.612;8.088;2022-10-16T02:14:53;3.33;;;1.10;;
53670;SDS011;39571;48.612;8.088;2022-10-16T02:17:19;1.77;;;1.00;;
53670;SDS011;39571;48.612;8.088;2022-10-16T02:19:45;2.47;;;0.98;;
53670;SDS011;39571;48.612;8.088;2022-10-16T02:22:32;2.38;;;0.93;;
53670;SDS011;39571;48.612;8.088;2022-10-16T02:25:12;2.08;;;1.05;;
53670;SDS011;39571;48.612;8.088;2022-10-16T02:27:47;1.27;;;0.95;;
53670;SDS011;39571;48.612;8.088;2022-10-16T02:30:36;2.50;;;1.10;;
53670;SDS011;39571;48.612;8.088;2022-10-16T02:33:07;1.88;;;1.00;;
53670;SDS011;39571;48.612;8.088;2022-10-16T02:35:36;2.13;;;0.95;;
53670;SDS011;39571;48.612;8.088;2022-10-16T02:38:02;2.22;;;1.00;;
53670;SDS011;39571;48.612;8.088;2022-10-16T02:40:29;1.73;;;1.02;;
53670;SDS011;39571;48.612;8.088;2022-10-16T02:42:55;2.55;;;0.90;;
53670;SDS011;39571;48.612;8.088;2022-10-16T02:45:21;2.13;;;1.30;;
53670;SDS011;39571;48.612;8.088;2022-10-16T02:47:47;3.05;;;0.80;;
53670;SDS011;39571;48.612;8.088;2022-10-16T02:50:13;1.40;;;0.90;;
53670;SDS011;39571;48.612;8.088;2022-10-16T02:52:38;1.60;;;0.90;;
53670;SDS011;39571;48.612;8.088;2022-10-16T02:55:04;1.63;;;0.93;;
53670;SDS011;39571;48.612;8.088;2022-10-16T02:57:30;1.80;;;1.00;;
53670;SDS011;39571;48.612;8.088;2022-10-16T02:59:56;1.60;;;0.82;;
53670;SDS011;39571;48.612;8.088;2022-10-16T03:02:21;2.25;;;0.90;;
53670;SDS011;39571;48.612;8.088;2022-10-16T03:04:47;1.80;;;1.00;;
53670;SDS011;39571;48.612;8.088;2022-10-16T03:07:12;2.03;;;0.90;;
53670;SDS011;39571;48.612;8.088;2022-10-16T03:09:37;1.67;;;0.80;;
53670;SDS011;39571;48.612;8.088;2022-10-16T03:12:03;2.25;;;0.90;;
53670;SDS011;39571;48.612;8.088;2022-10-16T03:14:28;1.13;;;0.75;;
53670;SDS011;39571;48.612;8.088;2022-10-16T03:16:54;1.42;;;0.88;;
53670;SDS011;39571;48.612;8.088;2022-10-16T03:19:19;1.70;;;0.80;;
53670;SDS011;39571;48.612;8.088;2022-10-16T03:21:44;1.70;;;0.75;;
53670;SDS011;39571;48.612;8.088;2022-10-16T03:24:10;1.70;;;0.90;;
53670;SDS011;39571;48.612;8.088;2022-10-16T03:26:35;1.73;;;0.95;;
53670;SDS011;39571;48.612;8.088;2022-10-16T03:29:01;2.42;;;1.00;;
53670;SDS011;39571;48.612;8.088;2022-10-16T03:31:28;1.25;;;0.80;;
53670;SDS011;39571;48.612;8.088;2022-10-16T03:33:54;1.70;;;0.90;;
53670;SDS011;39571;48.612;8.088;2022-10-16T03:36:19;2.08;;;1.00;;
53670;SDS011;39571;48.612;8.088;2022-10-16T03:38:44;1.92;;;1.13;;
53670;SDS011;39571;48.612;8.088;2022-10-16T03:41:10;1.50;;;0.90;;
53670;SDS011;39571;48.612;8.088;2022-10-16T03:43:35;1.90;;;0.90;;
53670;SDS011;39571;48.612;8.088;2022-10-16T03:46:00;1.83;;;0.98;;
53670;SDS011;39571;48.612;8.088;2022-10-16T03:48:26;1.92;;;0.77;;
53670;SDS011;39571;48.612;8.088;2022-10-16T03:50:51;2.13;;;0.93;;
53670;SDS011;39571;48.612;8.088;2022-10-16T03:53:17;1.60;;;0.90;;
53670;SDS011;39571;48.612;8.088;2022-10-16T03:55:42;1.27;;;0.82;;
53670;SDS011;39571;48.612;8.088;2022-10-16T03:58:08;2.55;;;1.02;;
53670;SDS011;39571;48.612;8.088;2022-10-16T04:00:34;2.35;;;1.05;;
53670;SDS011;39571;48.612;8.088;2022-10-16T04:02:59;2.60;;;0.90;;
53670;SDS011;39571;48.612;8.088;2022-10-16T04:05:25;1.73;;;0.80;;
53670;SDS011;39571;48.612;8.088;2022-10-16T04:07:51;1.63;;;0.82;;
53670;SDS011;39571;48.612;8.088;2022-10-16T04:10:16;1.90;;;1.00;;
53670;SDS011;39571;48.612;8.088;2022-10-16T04:12:42;1.35;;;0.80;;
53670;SDS011;39571;48.612;8.088;2022-10-16T04:15:07;1.88;;;0.95;;
53670;SDS011;39571;48.612;8.088;2022-10-16T04:17:33;1.50;;;0.90;;
53670;SDS011;39571;48.612;8.088;2022-10-16T04:19:58;1.27;;;0.70;;
53670;SDS011;39571;48.612;8.088;2022-10-16T04:22:24;1.67;;;0.82;;
53670;SDS011;39571;48.612;8.088;2022-10-16T04:24:49;1.95;;;0.77;;
53670;SDS011;39571;48.612;8.088;2022-10-16T04:27:14;1.00;;;0.70;;
53670;SDS011;39571;48.612;8.088;2022-10-16T04:29:39;1.40;;;0.82;;
53670;SDS011;39571;48.612;8.088;2022-10-16T04:32:05;2.00;;;0.88;;
53670;SDS011;39571;48.612;8.088;2022-10-16T04:34:32;1.83;;;1.00;;
53670;SDS011;39571;48.612;8.088;2022-10-16T04:36:57;1.30;;;0.80;;
53670;SDS011;39571;48.612;8.088;2022-10-16T04:39:23;2.00;;;0.95;;
53670;SDS011;39571;48.612;8.088;2022-10-16T04:41:48;1.70;;;0.80;;
53670;SDS011;39571;48.612;8.088;2022-10-16T04:44:13;1.80;;;0.80;;
53670;SDS011;39571;48.612;8.088;2022-10-16T04:46:39;2.05;;;1.00;;
53670;SDS011;39571;48.612;8.088;2022-10-16T04:49:04;1.70;;;0.93;;
53670;SDS011;39571;48.612;8.088;2022-10-16T04:51:29;1.63;;;0.60;;
53670;SDS011;39571;48.612;8.088;2022-10-16T04:53:54;1.27;;;0.70;;
53670;SDS011;39571;48.612;8.088;2022-10-16T04:56:20;1.30;;;0.82;;
53670;SDS011;39571;48.612;8.088;2022-10-16T04:58:46;1.70;;;0.80;;
53670;SDS011;39571;48.612;8.088;2022-10-16T05:01:12;2.15;;;0.90;;
53670;SDS011;39571;48.612;8.088;2022-10-16T05:03:38;1.25;;;0.80;;
53670;SDS011;39571;48.612;8.088;2022-10-16T05:06:05;2.65;;;0.70;;
53670;SDS011;39571;48.612;8.088;2022-10-16T05:08:30;1.40;;;0.75;;
53670;SDS011;39571;48.612;8.088;2022-10-16T05:10:56;2.25;;;0.70;;
53670;SDS011;39571;48.612;8.088;2022-10-16T05:13:21;1.20;;;0.70;;
53670;SDS011;39571;48.612;8.088;2022-10-16T05:15:48;1.10;;;0.60;;
53670;SDS011;39571;48.612;8.088;2022-10-16T05:18:14;1.35;;;0.80;;
53670;SDS011;39571;48.612;8.088;2022-10-16T05:20:40;1.45;;;0.80;;
53670;SDS011;39571;48.612;8.088;2022-10-16T05:23:06;1.35;;;0.75;;
53670;SDS011;39571;48.612;8.088;2022-10-16T05:25:31;1.15;;;0.70;;
53670;SDS011;39571;48.612;8.088;2022-10-16T05:27:56;1.70;;;0.80;;
53670;SDS011;39571;48.612;8.088;2022-10-16T05:30:22;1.20;;;0.80;;
53670;SDS011;39571;48.612;8.088;2022-10-16T05:32:48;1.48;;;0.80;;
53670;SDS011;39571;48.612;8.088;2022-10-16T05:35:15;1.45;;;0.80;;
53670;SDS011;39571;48.612;8.088;2022-10-16T05:37:41;1.23;;;0.90;;
53670;SDS011;39571;48.612;8.088;2022-10-16T05:40:07;2.75;;;0.70;;
53670;SDS011;39571;48.612;8.088;2022-10-16T05:42:32;1.00;;;0.60;;
53670;SDS011;39571;48.612;8.088;2022-10-16T05:44:58;1.20;;;0.73;;
53670;SDS011;39571;48.612;8.088;2022-10-16T05:47:23;1.17;;;0.80;;
53670;SDS011;39571;48.612;8.088;2022-10-16T05:49:48;2.22;;;0.90;;
53670;SDS011;39571;48.612;8.088;2022-10-16T05:52:14;1.30;;;0.80;;
53670;SDS011;39571;48.612;8.088;2022-10-16T05:54:39;1.17;;;0.60;;
53670;SDS011;39571;48.612;8.088;2022-10-16T05:57:04;1.38;;;0.73;;
53670;SDS011;39571;48.612;8.088;2022-10-16T05:59:30;1.70;;;0.60;;
53670;SDS011;39571;48.612;8.088;2022-10-16T06:01:56;1.40;;;0.70;;
53670;SDS011;39571;48.612;8.088;2022-10-16T06:04:22;1.00;;;0.70;;
53670;SDS011;39571;48.612;8.088;2022-10-16T06:06:47;1.95;;;0.90;;
53670;SDS011;39571;48.612;8.088;2022-10-16T06:09:12;2.05;;;0.63;;
53670;SDS011;39571;48.612;8.088;2022-10-16T06:11:38;1.30;;;0.75;;
53670;SDS011;39571;48.612;8.088;2022-10-16T06:14:03;0.95;;;0.70;;
53670;SDS011;39571;48.612;8.088;2022-10-16T06:16:31;2.08;;;0.80;;
53670;SDS011;39571;48.612;8.088;2022-10-16T06:19:00;1.23;;;0.93;;
53670;SDS011;39571;48.612;8.088;2022-10-16T06:21:27;1.48;;;0.82;;
53670;SDS011;39571;48.612;8.088;2022-10-16T06:23:56;1.80;;;0.80;;
53670;SDS011;39571;48.612;8.088;2022-10-16T06:26:23;2.25;;;0.88;;
53670;SDS011;39571;48.612;8.088;2022-10-16T06:28:50;1.95;;;0.73;;
53670;SDS011;39571;48.612;8.088;2022-10-16T06:31:15;1.30;;;0.70;;
53670;SDS011;39571;48.612;8.088;2022-10-16T06:33:41;1.17;;;0.70;;
53670;SDS011;39571;48.612;8.088;2022-10-16T06:36:15;1.48;;;0.70;;
53670;SDS011;39571;48.612;8.088;2022-10-16T06:41:08;1.10;;;0.60;;
53670;SDS011;39571;48.612;8.088;2022-10-16T06:43:36;1.33;;;0.60;;
53670;SDS011;39571;48.612;8.088;2022-10-16T06:46:01;1.45;;;0.70;;
53670;SDS011;39571;48.612;8.088;2022-10-16T06:48:29;1.10;;;0.70;;
53670;SDS011;39571;48.612;8.088;2022-10-16T06:51:04;2.10;;;0.70;;
53670;SDS011;39571;48.612;8.088;2022-10-16T06:53:41;1.98;;;0.88;;
53670;SDS011;39571;48.612;8.088;2022-10-16T06:56:12;1.50;;;0.75;;
53670;SDS011;39571;48.612;8.088;2022-10-16T06:58:41;1.50;;;0.70;;
53670;SDS011;39571;48.612;8.088;2022-10-16T07:01:07;1.70;;;0.70;;
53670;SDS011;39571;48.612;8.088;2022-10-16T07:03:33;1.30;;;0.70;;
53670;SDS011;39571;48.612;8.088;2022-10-16T07:06:01;2.00;;;0.70;;
53670;SDS011;39571;48.612;8.088;2022-10-16T07:08:30;1.23;;;0.70;;
53670;SDS011;39571;48.612;8.088;2022-10-16T07:11:00;2.40;;;0.90;;
53670;SDS011;39571;48.612;8.088;2022-10-16T07:13:27;1.30;;;0.77;;
53670;SDS011;39571;48.612;8.088;2022-10-16T07:15:52;0.95;;;0.70;;
53670;SDS011;39571;48.612;8.088;2022-10-16T07:18:17;2.88;;;0.82;;
53670;SDS011;39571;48.612;8.088;2022-10-16T07:20:43;1.38;;;0.70;;
53670;SDS011;39571;48.612;8.088;2022-10-16T07:23:08;1.55;;;0.75;;
53670;SDS011;39571;48.612;8.088;2022-10-16T07:25:34;1.58;;;0.80;;
53670;SDS011;39571;48.612;8.088;2022-10-16T07:27:59;1.30;;;0.80;;
53670;SDS011;39571;48.612;8.088;2022-10-16T07:30:24;1.30;;;0.68;;
53670;SDS011;39571;48.612;8.088;2022-10-16T07:32:49;1.35;;;0.75;;
53670;SDS011;39571;48.612;8.088;2022-10-16T07:35:15;1.27;;;0.70;;
53670;SDS011;39571;48.612;8.088;2022-10-16T07:37:43;1.27;;;0.70;;
53670;SDS011;39571;48.612;8.088;2022-10-16T07:40:10;1.73;;;0.68;;
53670;SDS011;39571;48.612;8.088;2022-10-16T07:42:35;1.83;;;1.20;;
53670;SDS011;39571;48.612;8.088;2022-10-16T07:45:00;5.05;;;1.42;;
53670;SDS011;39571;48.612;8.088;2022-10-16T07:47:26;3.03;;;2.10;;
53670;SDS011;39571;48.612;8.088;2022-10-16T07:49:51;5.25;;;2.92;;
53670;SDS011;39571;48.612;8.088;2022-10-16T07:52:16;8.95;;;3.20;;
53670;SDS011;39571;48.612;8.088;2022-10-16T07:54:42;11.93;;;4.32;;
53670;SDS011;39571;48.612;8.088;2022-10-16T07:57:07;10.40;;;4.93;;
53670;SDS011;39571;48.612;8.088;2022-10-16T07:59:32;7.85;;;3.65;;
53670;SDS011;39571;48.612;8.088;2022-10-16T08:01:58;8.57;;;3.17;;
53670;SDS011;39571;48.612;8.088;2022-10-16T08:04:23;10.68;;;3.03;;
53670;SDS011;39571;48.612;8.088;2022-10-16T08:06:48;8.65;;;2.90;;
53670;SDS011;39571;48.612;8.088;2022-10-16T08:09:14;10.18;;;2.65;;
53670;SDS011;39571;48.612;8.088;2022-10-16T08:11:40;7.72;;;2.38;;
53670;SDS011;39571;48.612;8.088;2022-10-16T08:14:05;6.75;;;2.28;;
53670;SDS011;39571;48.612;8.088;2022-10-16T08:16:30;3.40;;;1.88;;
53670;SDS011;39571;48.612;8.088;2022-10-16T08:18:56;5.60;;;1.98;;
53670;SDS011;39571;48.612;8.088;2022-10-16T08:21:22;5.75;;;2.13;;
53670;SDS011;39571;48.612;8.088;2022-10-16T08:23:48;5.03;;;2.22;;
53670;SDS011;39571;48.612;8.088;2022-10-16T08:26:14;6.28;;;2.17;;
53670;SDS011;39571;48.612;8.088;2022-10-16T08:28:39;4.63;;;2.33;;
53670;SDS011;39571;48.612;8.088;2022-10-16T08:31:05;5.25;;;2.22;;
53670;SDS011;39571;48.612;8.088;2022-10-16T08:33:31;7.40;;;2.40;;
53670;SDS011;39571;48.612;8.088;2022-10-16T08:35:56;8.85;;;2.45;;
53670;SDS011;39571;48.612;8.088;2022-10-16T08:38:21;4.68;;;2.08;;
53670;SDS011;39571;48.612;8.088;2022-10-16T08:40:47;3.47;;;1.88;;
53670;SDS011;39571;48.612;8.088;2022-10-16T08:46:09;6.25;;;2.40;;
53670;SDS011;39571;48.612;8.088;2022-10-16T08:48:47;4.82;;;2.00;;
53670;SDS011;39571;48.612;8.088;2022-10-16T08:51:24;6.78;;;2.05;;
53670;SDS011;39571;48.612;8.088;2022-10-16T08:53:56;8.50;;;2.28;;
53670;SDS011;39571;48.612;8.088;2022-10-16T08:56:25;5.95;;;2.17;;
53670;SDS011;39571;48.612;8.088;2022-10-16T08:58:51;5.78;;;2.30;;
53670;SDS011;39571;48.612;8.088;2022-10-16T09:01:19;6.30;;;2.17;;
53670;SDS011;39571;48.612;8.088;2022-10-16T09:12:12;7.13;;;2.10;;
53670;SDS011;39571;48.612;8.088;2022-10-16T09:14:57;5.63;;;1.80;;
53670;SDS011;39571;48.612;8.088;2022-10-16T09:25:45;6.13;;;2.05;;
53670;SDS011;39571;48.612;8.088;2022-10-16T09:28:13;5.72;;;2.38;;
53670;SDS011;39571;48.612;8.088;2022-10-16T09:30:39;4.72;;;2.10;;
53670;SDS011;39571;48.612;8.088;2022-10-16T09:33:04;4.20;;;1.85;;
53670;SDS011;39571;48.612;8.088;2022-10-16T09:35:36;3.63;;;1.88;;
53670;SDS011;39571;48.612;8.088;2022-10-16T09:38:32;3.75;;;1.88;;
53670;SDS011;39571;48.612;8.088;2022-10-16T09:41:00;3.53;;;1.90;;
53670;SDS011;39571;48.612;8.088;2022-10-16T09:46:04;5.22;;;2.30;;
53670;SDS011;39571;48.612;8.088;2022-10-16T09:48:37;5.80;;;2.20;;
53670;SDS011;39571;48.612;8.088;2022-10-16T09:53:46;3.38;;;2.30;;
53670;SDS011;39571;48.612;8.088;2022-10-16T09:56:20;3.13;;;1.80;;
53670;SDS011;39571;48.612;8.088;2022-10-16T09:58:51;2.80;;;2.00;;
53670;SDS011;39571;48.612;8.088;2022-10-16T10:01:21;4.30;;;2.00;;
53670;SDS011;39571;48.612;8.088;2022-10-16T10:03:55;2.55;;;1.63;;
53670;SDS011;39571;48.612;8.088;2022-10-16T10:06:27;2.45;;;1.75;;
53670;SDS011;39571;48.612;8.088;2022-10-16T10:12:02;3.33;;;2.10;;
53670;SDS011;39571;48.612;8.088;2022-10-16T10:14:39;3.47;;;2.00;;
53670;SDS011;39571;48.612;8.088;2022-10-16T10:17:11;3.47;;;2.30;;
53670;SDS011;39571;48.612;8.088;2022-10-16T10:19:59;3.42;;;2.22;;
53670;SDS011;39571;48.612;8.088;2022-10-16T10:28:03;5.05;;;2.05;;
53670;SDS011;39571;48.612;8.088;2022-10-16T10:30:40;5.57;;;2.50;;
53670;SDS011;39571;48.612;8.088;2022-10-16T10:41:46;3.95;;;2.22;;
53670;SDS011;39571;48.612;8.088;2022-10-16T10:44:51;3.78;;;2.00;;
53670;SDS011;39571;48.612;8.088;2022-10-16T10:55:53;4.82;;;2.00;;
53670;SDS011;39571;48.612;8.088;2022-10-16T11:06:43;2.83;;;1.58;;
53670;SDS011;39571;48.612;8.088;2022-10-16T11:12:05;4.20;;;2.05;;
53670;SDS011;39571;48.612;8.088;2022-10-16T11:17:42;4.72;;;1.80;;
53670;SDS011;39571;48.612;8.088;2022-10-16T11:22:58;3.30;;;1.80;;
53670;SDS011;39571;48.612;8.088;2022-10-16T11:25:28;5.00;;;1.73;;
53670;SDS011;39571;48.612;8.088;2022-10-16T11:30:39;2.58;;;1.75;;
53670;SDS011;39571;48.612;8.088;2022-10-16T11:36:03;3.55;;;1.63;;
53670;SDS011;39571;48.612;8.088;2022-10-16T11:41:27;3.28;;;1.40;;
53670;SDS011;39571;48.612;8.088;2022-10-16T11:49:40;4.85;;;1.65;;
53670;SDS011;39571;48.612;8.088;2022-10-16T11:52:19;3.13;;;1.60;;
53670;SDS011;39571;48.612;8.088;2022-10-16T11:57:49;3.55;;;1.80;;
53670;SDS011;39571;48.612;8.088;2022-10-16T12:00:20;7.13;;;1.70;;
53670;SDS011;39571;48.612;8.088;2022-10-16T12:08:15;3.58;;;1.30;;
53670;SDS011;39571;48.612;8.088;2022-10-16T12:10:42;2.80;;;1.30;;
53670;SDS011;39571;48.612;8.088;2022-10-16T12:13:30;3.00;;;1.60;;
53670;SDS011;39571;48.612;8.088;2022-10-16T12:18:37;2.80;;;1.40;;
53670;SDS011;39571;48.612;8.088;2022-10-16T12:21:03;2.60;;;1.40;;
53670;SDS011;39571;48.612;8.088;2022-10-16T12:23:31;2.80;;;1.50;;
53670;SDS011;39571;48.612;8.088;2022-10-16T12:25:58;4.03;;;1.55;;
53670;SDS011;39571;48.612;8.088;2022-10-16T12:28:27;4.03;;;1.55;;
53670;SDS011;39571;48.612;8.088;2022-10-16T12:30:56;1.90;;;1.40;;
53670;SDS011;39571;48.612;8.088;2022-10-16T12:33:25;3.65;;;1.50;;
53670;SDS011;39571;48.612;8.088;2022-10-16T12:35:52;3.50;;;1.23;;
53670;SDS011;39571;48.612;8.088;2022-10-16T12:38:24;3.10;;;1.50;;
53670;SDS011;39571;48.612;8.088;2022-10-16T12:40:59;2.50;;;1.42;;
53670;SDS011;39571;48.612;8.088;2022-10-16T12:43:37;4.40;;;1.60;;
53670;SDS011;39571;48.612;8.088;2022-10-16T12:48:32;3.60;;;1.70;;
53670;SDS011;39571;48.612;8.088;2022-10-16T12:51:09;4.45;;;1.42;;
53670;SDS011;39571;48.612;8.088;2022-10-16T12:53:36;2.17;;;1.40;;
53670;SDS011;39571;48.612;8.088;2022-10-16T12:56:03;3.67;;;1.42;;
53670;SDS011;39571;48.612;8.088;2022-10-16T12:58:37;3.03;;;1.80;;
53670;SDS011;39571;48.612;8.088;2022-10-16T13:01:12;2.58;;;1.50;;
53670;SDS011;39571;48.612;8.088;2022-10-16T13:09:54;3.15;;;2.00;;
53670;SDS011;39571;48.612;8.088;2022-10-16T13:15:38;2.78;;;1.60;;
53670;SDS011;39571;48.612;8.088;2022-10-16T13:18:19;7.50;;;1.95;;
53670;SDS011;39571;48.612;8.088;2022-10-16T13:23:22;3.53;;;1.90;;
53670;SDS011;39571;48.612;8.088;2022-10-16T13:26:05;4.95;;;2.00;;
53670;SDS011;39571;48.612;8.088;2022-10-16T13:28:42;6.93;;;2.20;;
53670;SDS011;39571;48.612;8.088;2022-10-16T13:31:15;6.68;;;2.00;;
53670;SDS011;39571;48.612;8.088;2022-10-16T13:33:48;5.35;;;2.10;;
53670;SDS011;39571;48.612;8.088;2022-10-16T13:36:23;6.35;;;1.80;;
53670;SDS011;39571;48.612;8.088;2022-10-16T13:41:38;9.25;;;1.80;;
53670;SDS011;39571;48.612;8.088;2022-10-16T13:44:04;5.10;;;1.80;;
53670;SDS011;39571;48.612;8.088;2022-10-16T13:46:36;2.55;;;1.90;;
53670;SDS011;39571;48.612;8.088;2022-10-16T13:49:06;3.42;;;1.70;;
53670;SDS011;39571;48.612;8.088;2022-10-16T13:51:37;4.95;;;1.80;;
53670;SDS011;39571;48.612;8.088;2022-10-16T13:54:03;4.80;;;1.85;;
53670;SDS011;39571;48.612;8.088;2022-10-16T13:56:29;3.33;;;1.80;;
53670;SDS011;39571;48.612;8.088;2022-10-16T13:59:06;5.07;;;1.88;;
53670;SDS011;39571;48.612;8.088;2022-10-16T14:01:48;2.72;;;1.63;;
53670;SDS011;39571;48.612;8.088;2022-10-16T14:04:15;3.92;;;1.70;;
53670;SDS011;39571;48.612;8.088;2022-10-16T14:06:41;3.63;;;1.75;;
53670;SDS011;39571;48.612;8.088;2022-10-16T14:11:50;2.55;;;1.38;;
53670;SDS011;39571;48.612;8.088;2022-10-16T14:14:43;3.65;;;1.50;;
53670;SDS011;39571;48.612;8.088;2022-10-16T14:17:27;3.80;;;1.58;;
53670;SDS011;39571;48.612;8.088;2022-10-16T14:19:56;2.90;;;1.60;;
53670;SDS011;39571;48.612;8.088;2022-10-16T14:22:42;2.47;;;1.38;;
53670;SDS011;39571;48.612;8.088;2022-10-16T14:30:48;3.10;;;1.45;;
53670;SDS011;39571;48.612;8.088;2022-10-16T14:33:30;2.95;;;1.58;;
53670;SDS011;39571;48.612;8.088;2022-10-16T14:36:12;2.95;;;1.60;;
53670;SDS011;39571;48.612;8.088;2022-10-16T14:38:43;2.60;;;1.70;;
53670;SDS011;39571;48.612;8.088;2022-10-16T14:41:20;3.47;;;1.73;;
53670;SDS011;39571;48.612;8.088;2022-10-16T14:43:49;2.10;;;1.67;;
53670;SDS011;39571;48.612;8.088;2022-10-16T14:46:17;4.03;;;1.90;;
53670;SDS011;39571;48.612;8.088;2022-10-16T14:48:46;2.85;;;1.50;;
53670;SDS011;39571;48.612;8.088;2022-10-16T14:51:15;2.28;;;1.58;;
53670;SDS011;39571;48.612;8.088;2022-10-16T14:53:44;2.42;;;1.70;;
53670;SDS011;39571;48.612;8.088;2022-10-16T14:56:16;3.92;;;1.67;;
53670;SDS011;39571;48.612;8.088;2022-10-16T14:58:44;2.70;;;1.80;;
53670;SDS011;39571;48.612;8.088;2022-10-16T15:01:10;2.50;;;1.50;;
53670;SDS011;39571;48.612;8.088;2022-10-16T15:03:36;3.55;;;1.75;;
53670;SDS011;39571;48.612;8.088;2022-10-16T15:06:02;3.38;;;1.27;;
53670;SDS011;39571;48.612;8.088;2022-10-16T15:08:27;5.28;;;1.70;;
53670;SDS011;39571;48.612;8.088;2022-10-16T15:10:53;3.53;;;1.70;;
53670;SDS011;39571;48.612;8.088;2022-10-16T15:13:18;3.30;;;1.70;;
53670;SDS011;39571;48.612;8.088;2022-10-16T15:15:44;2.97;;;1.40;;
53670;SDS011;39571;48.612;8.088;2022-10-16T15:18:11;1.75;;;1.45;;
53670;SDS011;39571;48.612;8.088;2022-10-16T15:20:37;2.40;;;1.67;;
53670;SDS011;39571;48.612;8.088;2022-10-16T15:23:05;2.60;;;1.50;;
53670;SDS011;39571;48.612;8.088;2022-10-16T15:25:38;2.47;;;1.42;;
53670;SDS011;39571;48.612;8.088;2022-10-16T15:28:07;1.85;;;1.40;;
53670;SDS011;39571;48.612;8.088;2022-10-16T15:30:34;2.50;;;1.60;;
53670;SDS011;39571;48.612;8.088;2022-10-16T15:33:01;3.47;;;1.58;;
53670;SDS011;39571;48.612;8.088;2022-10-16T15:35:27;2.53;;;1.50;;
53670;SDS011;39571;48.612;8.088;2022-10-16T15:37:52;3.88;;;1.80;;
53670;SDS011;39571;48.612;8.088;2022-10-16T15:40:18;3.08;;;1.90;;
53670;SDS011;39571;48.612;8.088;2022-10-16T15:42:44;3.38;;;1.80;;
53670;SDS011;39571;48.612;8.088;2022-10-16T15:45:10;3.85;;;1.90;;
53670;SDS011;39571;48.612;8.088;2022-10-16T15:47:36;2.40;;;1.70;;
53670;SDS011;39571;48.612;8.088;2022-10-16T15:50:01;4.25;;;1.90;;
53670;SDS011;39571;48.612;8.088;2022-10-16T15:52:27;5.05;;;2.58;;
53670;SDS011;39571;48.612;8.088;2022-10-16T15:54:53;4.28;;;2.33;;
53670;SDS011;39571;48.612;8.088;2022-10-16T15:57:19;5.68;;;2.75;;
53670;SDS011;39571;48.612;8.088;2022-10-16T15:59:44;4.85;;;2.38;;
53670;SDS011;39571;48.612;8.088;2022-10-16T16:02:10;5.80;;;2.42;;
53670;SDS011;39571;48.612;8.088;2022-10-16T16:04:35;2.92;;;2.08;;
53670;SDS011;39571;48.612;8.088;2022-10-16T16:07:00;6.03;;;2.28;;
53670;SDS011;39571;48.612;8.088;2022-10-16T16:09:28;3.40;;;1.80;;
53670;SDS011;39571;48.612;8.088;2022-10-16T16:11:54;5.40;;;2.25;;
53670;SDS011;39571;48.612;8.088;2022-10-16T16:14:20;4.22;;;2.30;;
53670;SDS011;39571;48.612;8.088;2022-10-16T16:16:45;4.80;;;2.20;;
53670;SDS011;39571;48.612;8.088;2022-10-16T16:19:10;5.82;;;2.10;;
53670;SDS011;39571;48.612;8.088;2022-10-16T16:21:36;3.85;;;2.15;;
53670;SDS011;39571;48.612;8.088;2022-10-16T16:24:01;4.55;;;2.30;;
53670;SDS011;39571;48.612;8.088;2022-10-16T16:26:32;4.47;;;2.20;;
53670;SDS011;39571;48.612;8.088;2022-10-16T16:29:01;2.92;;;2.00;;
53670;SDS011;39571;48.612;8.088;2022-10-16T16:31:28;3.92;;;2.30;;
53670;SDS011;39571;48.612;8.088;2022-10-16T16:33:55;5.68;;;1.98;;
53670;SDS011;39571;48.612;8.088;2022-10-16T16:36:22;3.00;;;1.95;;
53670;SDS011;39571;48.612;8.088;2022-10-16T16:38:47;4.03;;;2.17;;
53670;SDS011;39571;48.612;8.088;2022-10-16T16:43:45;2.47;;;1.58;;
53670;SDS011;39571;48.612;8.088;2022-10-16T16:46:12;4.03;;;2.00;;
53670;SDS011;39571;48.612;8.088;2022-10-16T16:48:38;3.13;;;1.98;;
53670;SDS011;39571;48.612;8.088;2022-10-16T16:51:07;4.35;;;1.85;;
53670;SDS011;39571;48.612;8.088;2022-10-16T16:53:41;4.32;;;1.90;;
53670;SDS011;39571;48.612;8.088;2022-10-16T16:56:07;2.42;;;1.88;;
53670;SDS011;39571;48.612;8.088;2022-10-16T16:58:33;4.30;;;1.77;;
53670;SDS011;39571;48.612;8.088;2022-10-16T17:00:59;2.90;;;1.75;;
53670;SDS011;39571;48.612;8.088;2022-10-16T17:03:26;2.88;;;1.67;;
53670;SDS011;39571;48.612;8.088;2022-10-16T17:05:56;4.57;;;1.77;;
53670;SDS011;39571;48.612;8.088;2022-10-16T17:08:25;2.60;;;1.70;;